sensor_id;sensor_type;location;lat;lon;timestamp;temperature;humidity
5128;DHT22;2582;48.770;9.190;2022-11-20T00:01:07;8.50;99.90
5128;DHT22;2582;48.770;9.190;2022-11-20T00:03:33;8.60;99.90
5128;DHT22;2582;48.770;9.190;2022-11-20T00:06:10;8.50;99.90
5128;DHT22;2582;48.770;9.190;2022-11-20T00:08:37;8.50;99.90
5128;DHT22;2582;48.770;9.190;2022-11-20T00:13:29;8.50;99.90
5128;DHT22;2582;48.770;9.190;2022-11-20T00:15:59;8.60;99.90
5128;DHT22;2582;48.770;9.190;2022-11-20T00:18:25;8.60;99.90
5128;DHT22;2582;48.770;9.190;2022-11-20T00:20:51;8.60;99.90
5128;DHT22;2582;48.770;9.190;2022-11-20T00:23:17;8.60;99.90
5128;DHT22;2582;48.770;9.190;2022-11-20T00:25:42;8.60;99.90
5128;DHT22;2582;48.770;9.190;2022-11-20T00:28:08;8.50;99.90
5128;DHT22;2582;48.770;9.190;2022-11-20T00:30:33;8.60;99.90
5128;DHT22;2582;48.770;9.190;2022-11-20T00:32:59;8.50;99.90
5128;DHT22;2582;48.770;9.190;2022-11-20T00:35:24;8.40;99.90
5128;DHT22;2582;48.770;9.190;2022-11-20T00:37:50;8.40;99.90
5128;DHT22;2582;48.770;9.190;2022-11-20T00:40:16;8.60;99.90
5128;DHT22;2582;48.770;9.190;2022-11-20T00:42:41;8.60;99.90
5128;DHT22;2582;48.770;9.190;2022-11-20T00:45:07;8.50;99.90
5128;DHT22;2582;48.770;9.190;2022-11-20T00:47:33;8.40;99.90
5128;DHT22;2582;48.770;9.190;2022-11-20T00:49:58;8.40;99.90
5128;DHT22;2582;48.770;9.190;2022-11-20T00:52:24;8.40;99.90
5128;DHT22;2582;48.770;9.190;2022-11-20T00:54:49;8.40;99.90
5128;DHT22;2582;48.770;9.190;2022-11-20T00:57:15;8.50;99.90
5128;DHT22;2582;48.770;9.190;2022-11-20T00:59:40;8.30;99.90
5128;DHT22;2582;48.770;9.190;2022-11-20T01:02:06;8.30;99.90
5128;DHT22;2582;48.770;9.190;2022-11-20T01:04:31;8.50;99.90
5128;DHT22;2582;48.770;9.190;2022-11-20T01:06:57;8.50;99.90
5128;DHT22;2582;48.770;9.190;2022-11-20T01:09:22;8.50;99.90
5128;DHT22;2582;48.770;9.190;2022-11-20T01:11:48;8.50;99.90
5128;DHT22;2582;48.770;9.190;2022-11-20T01:14:18;8.40;99.90
5128;DHT22;2582;48.770;9.190;2022-11-20T01:16:47;8.60;99.90
5128;DHT22;2582;48.770;9.190;2022-11-20T01:19:16;8.50;99.90
5128;DHT22;2582;48.770;9.190;2022-11-20T01:21:43;8.30;99.90
5128;DHT22;2582;48.770;9.190;2022-11-20T01:24:14;8.20;99.90
5128;DHT22;2582;48.770;9.190;2022-11-20T01:26:42;8.30;99.90
5128;DHT22;2582;48.770;9.190;2022-11-20T01:29:15;8.40;99.90
5128;DHT22;2582;48.770;9.190;2022-11-20T01:31:41;8.30;99.90
5128;DHT22;2582;48.770;9.190;2022-11-20T01:34:12;8.30;99.90
5128;DHT22;2582;48.770;9.190;2022-11-20T01:36:38;8.10;99.90
5128;DHT22;2582;48.770;9.190;2022-11-20T01:39:16;8.20;99.90
5128;DHT22;2582;48.770;9.190;2022-11-20T01:41:42;8.40;99.90
5128;DHT22;2582;48.770;9.190;2022-11-20T01:44:48;8.40;99.90
5128;DHT22;2582;48.770;9.190;2022-11-20T01:47:17;8.30;99.90
5128;DHT22;2582;48.770;9.190;2022-11-20T01:49:55;8.30;99.90
5128;DHT22;2582;48.770;9.190;2022-11-20T01:52:30;8.40;99.90
5128;DHT22;2582;48.770;9.190;2022-11-20T01:55:03;8.30;99.90
5128;DHT22;2582;48.770;9.190;2022-11-20T01:57:31;8.20;99.90
5128;DHT22;2582;48.770;9.190;2022-11-20T02:00:07;8.20;99.90
5128;DHT22;2582;48.770;9.190;2022-11-20T02:02:33;8.20;99.90
5128;DHT22;2582;48.770;9.190;2022-11-20T02:05:16;8.30;99.90
5128;DHT22;2582;48.770;9.190;2022-11-20T02:07:44;8.40;99.90
5128;DHT22;2582;48.770;9.190;2022-11-20T02:10:09;8.30;99.90
5128;DHT22;2582;48.770;9.190;2022-11-20T02:12:36;8.30;99.90
5128;DHT22;2582;48.770;9.190;2022-11-20T02:15:20;8.40;99.90
5128;DHT22;2582;48.770;9.190;2022-11-20T02:17:46;8.40;99.90
5128;DHT22;2582;48.770;9.190;2022-11-20T02:20:12;8.30;99.90
5128;DHT22;2582;48.770;9.190;2022-11-20T02:22:54;8.30;99.90
5128;DHT22;2582;48.770;9.190;2022-11-20T02:25:21;8.30;99.90
5128;DHT22;2582;48.770;9.190;2022-11-20T02:27:46;8.40;99.90
5128;DHT22;2582;48.770;9.190;2022-11-20T02:30:12;8.40;99.90
5128;DHT22;2582;48.770;9.190;2022-11-20T02:32:38;8.40;99.90
5128;DHT22;2582;48.770;9.190;2022-11-20T02:35:10;8.20;99.90
5128;DHT22;2582;48.770;9.190;2022-11-20T02:37:56;8.30;99.90
5128;DHT22;2582;48.770;9.190;2022-11-20T02:40:23;8.20;99.90
5128;DHT22;2582;48.770;9.190;2022-11-20T02:42:55;7.90;99.90
5128;DHT22;2582;48.770;9.190;2022-11-20T02:45:22;8.00;99.90
5128;DHT22;2582;48.770;9.190;2022-11-20T02:47:48;8.10;99.90
5128;DHT22;2582;48.770;9.190;2022-11-20T02:50:14;8.10;99.90
5128;DHT22;2582;48.770;9.190;2022-11-20T02:52:40;8.10;99.90
5128;DHT22;2582;48.770;9.190;2022-11-20T02:55:06;8.10;99.90
5128;DHT22;2582;48.770;9.190;2022-11-20T02:57:31;8.00;99.90
5128;DHT22;2582;48.770;9.190;2022-11-20T02:59:57;8.20;99.90
5128;DHT22;2582;48.770;9.190;2022-11-20T03:02:22;8.30;99.90
5128;DHT22;2582;48.770;9.190;2022-11-20T03:04:48;8.30;99.90
5128;DHT22;2582;48.770;9.190;2022-11-20T03:07:14;8.40;99.90
5128;DHT22;2582;48.770;9.190;2022-11-20T03:09:39;8.40;99.90
5128;DHT22;2582;48.770;9.190;2022-11-20T03:12:05;8.50;99.90
5128;DHT22;2582;48.770;9.190;2022-11-20T03:14:31;8.50;99.90
5128;DHT22;2582;48.770;9.190;2022-11-20T03:16:57;8.50;99.90
5128;DHT22;2582;48.770;9.190;2022-11-20T03:19:23;8.30;99.90
5128;DHT22;2582;48.770;9.190;2022-11-20T03:21:48;8.30;99.90
5128;DHT22;2582;48.770;9.190;2022-11-20T03:24:14;8.20;99.90
5128;DHT22;2582;48.770;9.190;2022-11-20T03:26:40;8.30;99.90
5128;DHT22;2582;48.770;9.190;2022-11-20T03:29:06;8.30;99.90
5128;DHT22;2582;48.770;9.190;2022-11-20T03:31:35;8.30;99.90
5128;DHT22;2582;48.770;9.190;2022-11-20T03:34:01;8.20;99.90
5128;DHT22;2582;48.770;9.190;2022-11-20T03:36:28;8.20;99.90
5128;DHT22;2582;48.770;9.190;2022-11-20T03:38:57;8.20;99.90
5128;DHT22;2582;48.770;9.190;2022-11-20T03:41:25;8.00;99.90
5128;DHT22;2582;48.770;9.190;2022-11-20T03:43:59;8.10;99.90
5128;DHT22;2582;48.770;9.190;2022-11-20T03:46:26;8.10;99.90
5128;DHT22;2582;48.770;9.190;2022-11-20T03:48:52;8.00;99.90
5128;DHT22;2582;48.770;9.190;2022-11-20T03:51:21;7.70;99.90
5128;DHT22;2582;48.770;9.190;2022-11-20T03:53:48;7.60;99.90
5128;DHT22;2582;48.770;9.190;2022-11-20T03:56:15;7.50;99.90
5128;DHT22;2582;48.770;9.190;2022-11-20T03:58:42;7.50;99.90
5128;DHT22;2582;48.770;9.190;2022-11-20T04:01:12;7.50;99.90
5128;DHT22;2582;48.770;9.190;2022-11-20T04:03:40;7.60;99.90
5128;DHT22;2582;48.770;9.190;2022-11-20T04:06:11;7.50;99.90
5128;DHT22;2582;48.770;9.190;2022-11-20T04:08:38;7.30;99.90
5128;DHT22;2582;48.770;9.190;2022-11-20T04:11:31;7.40;99.90
5128;DHT22;2582;48.770;9.190;2022-11-20T04:14:02;7.40;99.90
5128;DHT22;2582;48.770;9.190;2022-11-20T04:16:34;7.40;99.90
5128;DHT22;2582;48.770;9.190;2022-11-20T04:19:01;7.30;99.90
5128;DHT22;2582;48.770;9.190;2022-11-20T04:21:27;7.30;99.90
5128;DHT22;2582;48.770;9.190;2022-11-20T04:23:54;7.30;99.90
5128;DHT22;2582;48.770;9.190;2022-11-20T04:26:21;7.40;99.90
5128;DHT22;2582;48.770;9.190;2022-11-20T04:28:47;7.40;99.90
5128;DHT22;2582;48.770;9.190;2022-11-20T04:31:15;7.30;99.90
5128;DHT22;2582;48.770;9.190;2022-11-20T04:33:41;7.30;99.90
5128;DHT22;2582;48.770;9.190;2022-11-20T04:36:16;7.30;99.90
5128;DHT22;2582;48.770;9.190;2022-11-20T04:38:42;7.30;99.90
5128;DHT22;2582;48.770;9.190;2022-11-20T04:41:14;7.40;99.90
5128;DHT22;2582;48.770;9.190;2022-11-20T04:43:40;7.30;99.90
5128;DHT22;2582;48.770;9.190;2022-11-20T04:46:05;7.10;99.90
5128;DHT22;2582;48.770;9.190;2022-11-20T04:48:31;7.10;99.90
5128;DHT22;2582;48.770;9.190;2022-11-20T04:50:57;7.20;99.90
5128;DHT22;2582;48.770;9.190;2022-11-20T04:53:23;7.20;99.90
5128;DHT22;2582;48.770;9.190;2022-11-20T04:55:49;7.40;99.90
5128;DHT22;2582;48.770;9.190;2022-11-20T04:58:15;7.50;99.90
5128;DHT22;2582;48.770;9.190;2022-11-20T05:00:40;7.70;99.90
5128;DHT22;2582;48.770;9.190;2022-11-20T05:03:06;7.80;99.90
5128;DHT22;2582;48.770;9.190;2022-11-20T05:05:33;8.00;99.90
5128;DHT22;2582;48.770;9.190;2022-11-20T05:07:59;8.00;99.90
5128;DHT22;2582;48.770;9.190;2022-11-20T05:10:26;8.00;99.90
5128;DHT22;2582;48.770;9.190;2022-11-20T05:12:52;7.90;99.90
5128;DHT22;2582;48.770;9.190;2022-11-20T05:15:17;8.00;99.90
5128;DHT22;2582;48.770;9.190;2022-11-20T05:17:50;8.10;99.90
5128;DHT22;2582;48.770;9.190;2022-11-20T05:20:17;8.10;99.90
5128;DHT22;2582;48.770;9.190;2022-11-20T05:22:43;8.10;99.90
5128;DHT22;2582;48.770;9.190;2022-11-20T05:25:09;8.10;99.90
5128;DHT22;2582;48.770;9.190;2022-11-20T05:27:34;8.20;99.90
5128;DHT22;2582;48.770;9.190;2022-11-20T05:30:00;8.00;99.90
5128;DHT22;2582;48.770;9.190;2022-11-20T05:32:25;8.10;99.90
5128;DHT22;2582;48.770;9.190;2022-11-20T05:34:52;8.20;99.90
5128;DHT22;2582;48.770;9.190;2022-11-20T05:37:17;8.30;99.90
5128;DHT22;2582;48.770;9.190;2022-11-20T05:39:43;8.30;99.90
5128;DHT22;2582;48.770;9.190;2022-11-20T05:42:08;8.40;99.90
5128;DHT22;2582;48.770;9.190;2022-11-20T05:44:53;8.40;99.90
5128;DHT22;2582;48.770;9.190;2022-11-20T05:47:18;8.30;99.90
5128;DHT22;2582;48.770;9.190;2022-11-20T05:49:44;8.40;99.90
5128;DHT22;2582;48.770;9.190;2022-11-20T05:52:10;8.10;99.90
5128;DHT22;2582;48.770;9.190;2022-11-20T05:54:35;8.10;99.90
5128;DHT22;2582;48.770;9.190;2022-11-20T05:57:01;8.10;99.90
5128;DHT22;2582;48.770;9.190;2022-11-20T05:59:26;8.00;99.90
5128;DHT22;2582;48.770;9.190;2022-11-20T06:01:52;7.90;99.90
5128;DHT22;2582;48.770;9.190;2022-11-20T06:04:17;8.10;99.90
5128;DHT22;2582;48.770;9.190;2022-11-20T06:06:43;8.10;99.90
5128;DHT22;2582;48.770;9.190;2022-11-20T06:09:09;8.10;99.90
5128;DHT22;2582;48.770;9.190;2022-11-20T06:11:34;8.20;99.90
5128;DHT22;2582;48.770;9.190;2022-11-20T06:14:00;8.20;99.90
5128;DHT22;2582;48.770;9.190;2022-11-20T06:16:25;8.20;99.90
5128;DHT22;2582;48.770;9.190;2022-11-20T06:18:51;8.20;99.90
5128;DHT22;2582;48.770;9.190;2022-11-20T06:21:19;8.20;99.90
5128;DHT22;2582;48.770;9.190;2022-11-20T06:23:45;8.20;99.90
5128;DHT22;2582;48.770;9.190;2022-11-20T06:26:14;8.30;99.90
5128;DHT22;2582;48.770;9.190;2022-11-20T06:28:40;8.30;99.90
5128;DHT22;2582;48.770;9.190;2022-11-20T06:31:06;8.40;99.90
5128;DHT22;2582;48.770;9.190;2022-11-20T06:33:33;8.40;99.90
5128;DHT22;2582;48.770;9.190;2022-11-20T06:36:00;8.30;99.90
5128;DHT22;2582;48.770;9.190;2022-11-20T06:38:26;8.40;99.90
5128;DHT22;2582;48.770;9.190;2022-11-20T06:40:53;8.40;99.90
5128;DHT22;2582;48.770;9.190;2022-11-20T06:43:18;8.40;99.90
5128;DHT22;2582;48.770;9.190;2022-11-20T06:45:44;8.30;99.90
5128;DHT22;2582;48.770;9.190;2022-11-20T06:48:09;8.10;99.90
5128;DHT22;2582;48.770;9.190;2022-11-20T06:50:38;8.10;99.90
5128;DHT22;2582;48.770;9.190;2022-11-20T06:53:04;8.10;99.90
5128;DHT22;2582;48.770;9.190;2022-11-20T06:55:31;8.20;99.90
5128;DHT22;2582;48.770;9.190;2022-11-20T06:57:57;8.10;99.90
5128;DHT22;2582;48.770;9.190;2022-11-20T07:00:23;8.00;99.90
5128;DHT22;2582;48.770;9.190;2022-11-20T07:02:48;8.00;99.90
5128;DHT22;2582;48.770;9.190;2022-11-20T07:05:15;8.00;99.90
5128;DHT22;2582;48.770;9.190;2022-11-20T07:07:41;8.20;99.90
5128;DHT22;2582;48.770;9.190;2022-11-20T07:10:07;8.10;99.90
5128;DHT22;2582;48.770;9.190;2022-11-20T07:12:32;8.20;99.90
5128;DHT22;2582;48.770;9.190;2022-11-20T07:14:58;8.10;99.90
5128;DHT22;2582;48.770;9.190;2022-11-20T07:17:23;8.10;99.90
5128;DHT22;2582;48.770;9.190;2022-11-20T07:19:49;8.00;99.90
5128;DHT22;2582;48.770;9.190;2022-11-20T07:22:15;8.00;99.90
5128;DHT22;2582;48.770;9.190;2022-11-20T07:24:40;8.20;99.90
5128;DHT22;2582;48.770;9.190;2022-11-20T07:27:06;8.20;99.90
5128;DHT22;2582;48.770;9.190;2022-11-20T07:29:31;8.00;99.90
5128;DHT22;2582;48.770;9.190;2022-11-20T07:31:57;7.90;99.90
5128;DHT22;2582;48.770;9.190;2022-11-20T07:34:23;7.90;99.90
5128;DHT22;2582;48.770;9.190;2022-11-20T07:36:48;8.00;99.90
5128;DHT22;2582;48.770;9.190;2022-11-20T07:39:14;8.10;99.90
5128;DHT22;2582;48.770;9.190;2022-11-20T07:41:39;8.20;99.90
5128;DHT22;2582;48.770;9.190;2022-11-20T07:44:05;8.30;99.90
5128;DHT22;2582;48.770;9.190;2022-11-20T07:46:31;8.50;99.90
5128;DHT22;2582;48.770;9.190;2022-11-20T07:48:56;8.50;99.90
5128;DHT22;2582;48.770;9.190;2022-11-20T07:51:22;8.50;99.90
5128;DHT22;2582;48.770;9.190;2022-11-20T07:53:51;8.50;99.90
5128;DHT22;2582;48.770;9.190;2022-11-20T07:56:16;8.60;99.90
5128;DHT22;2582;48.770;9.190;2022-11-20T07:58:42;8.70;99.90
5128;DHT22;2582;48.770;9.190;2022-11-20T08:01:07;8.80;99.90
5128;DHT22;2582;48.770;9.190;2022-11-20T08:03:33;8.70;99.90
5128;DHT22;2582;48.770;9.190;2022-11-20T08:06:00;8.60;99.90
5128;DHT22;2582;48.770;9.190;2022-11-20T08:08:26;8.70;99.90
5128;DHT22;2582;48.770;9.190;2022-11-20T08:10:52;8.90;99.90
5128;DHT22;2582;48.770;9.190;2022-11-20T08:13:18;8.90;99.90
5128;DHT22;2582;48.770;9.190;2022-11-20T08:16:02;9.10;99.90
5128;DHT22;2582;48.770;9.190;2022-11-20T08:18:27;9.20;99.90
5128;DHT22;2582;48.770;9.190;2022-11-20T08:20:53;9.00;99.90
5128;DHT22;2582;48.770;9.190;2022-11-20T08:23:18;9.10;99.90
5128;DHT22;2582;48.770;9.190;2022-11-20T08:25:49;8.90;99.90
5128;DHT22;2582;48.770;9.190;2022-11-20T08:28:14;8.80;99.90
5128;DHT22;2582;48.770;9.190;2022-11-20T08:30:40;8.90;99.90
5128;DHT22;2582;48.770;9.190;2022-11-20T08:33:07;9.10;99.90
5128;DHT22;2582;48.770;9.190;2022-11-20T08:35:35;8.90;99.90
5128;DHT22;2582;48.770;9.190;2022-11-20T08:38:02;9.00;99.90
5128;DHT22;2582;48.770;9.190;2022-11-20T08:40:27;8.90;99.90
5128;DHT22;2582;48.770;9.190;2022-11-20T08:42:53;8.90;99.90
5128;DHT22;2582;48.770;9.190;2022-11-20T08:45:19;9.10;99.90
5128;DHT22;2582;48.770;9.190;2022-11-20T08:47:45;8.90;99.90
5128;DHT22;2582;48.770;9.190;2022-11-20T08:50:12;8.80;99.90
5128;DHT22;2582;48.770;9.190;2022-11-20T08:52:38;8.90;99.90
5128;DHT22;2582;48.770;9.190;2022-11-20T08:55:05;9.10;99.90
5128;DHT22;2582;48.770;9.190;2022-11-20T08:57:35;9.20;99.90
5128;DHT22;2582;48.770;9.190;2022-11-20T09:00:03;9.40;99.90
5128;DHT22;2582;48.770;9.190;2022-11-20T09:02:28;9.50;99.90
5128;DHT22;2582;48.770;9.190;2022-11-20T09:04:54;9.50;99.90
5128;DHT22;2582;48.770;9.190;2022-11-20T09:07:20;9.60;99.90
5128;DHT22;2582;48.770;9.190;2022-11-20T09:09:45;9.40;99.90
5128;DHT22;2582;48.770;9.190;2022-11-20T09:12:11;9.40;99.90
5128;DHT22;2582;48.770;9.190;2022-11-20T09:14:36;9.50;99.90
5128;DHT22;2582;48.770;9.190;2022-11-20T09:17:02;9.70;99.90
5128;DHT22;2582;48.770;9.190;2022-11-20T09:19:28;9.60;99.90
5128;DHT22;2582;48.770;9.190;2022-11-20T09:21:53;9.50;99.90
5128;DHT22;2582;48.770;9.190;2022-11-20T09:24:19;9.20;99.90
5128;DHT22;2582;48.770;9.190;2022-11-20T09:26:46;9.20;99.90
5128;DHT22;2582;48.770;9.190;2022-11-20T09:29:12;9.30;99.90
5128;DHT22;2582;48.770;9.190;2022-11-20T09:31:38;9.30;99.90
5128;DHT22;2582;48.770;9.190;2022-11-20T09:34:03;9.30;99.90
5128;DHT22;2582;48.770;9.190;2022-11-20T09:36:29;9.40;99.90
5128;DHT22;2582;48.770;9.190;2022-11-20T09:38:54;9.30;99.90
5128;DHT22;2582;48.770;9.190;2022-11-20T09:55:11;9.40;99.90
5128;DHT22;2582;48.770;9.190;2022-11-20T09:57:41;9.40;99.90
5128;DHT22;2582;48.770;9.190;2022-11-20T10:00:11;9.40;99.90
5128;DHT22;2582;48.770;9.190;2022-11-20T10:02:50;9.40;99.90
5128;DHT22;2582;48.770;9.190;2022-11-20T10:05:47;9.40;99.90
5128;DHT22;2582;48.770;9.190;2022-11-20T10:30:23;9.40;99.90
5128;DHT22;2582;48.770;9.190;2022-11-20T10:33:04;9.30;99.90
5128;DHT22;2582;48.770;9.190;2022-11-20T10:38:03;9.30;99.90
5128;DHT22;2582;48.770;9.190;2022-11-20T10:40:38;9.10;99.90
5128;DHT22;2582;48.770;9.190;2022-11-20T10:43:12;9.00;99.90
5128;DHT22;2582;48.770;9.190;2022-11-20T10:46:08;8.90;99.90
5128;DHT22;2582;48.770;9.190;2022-11-20T10:48:36;9.10;99.90
5128;DHT22;2582;48.770;9.190;2022-11-20T10:51:18;9.10;99.90
5128;DHT22;2582;48.770;9.190;2022-11-20T10:53:53;9.10;99.90
5128;DHT22;2582;48.770;9.190;2022-11-20T10:56:44;9.10;99.90
5128;DHT22;2582;48.770;9.190;2022-11-20T11:01:56;9.20;99.90
5128;DHT22;2582;48.770;9.190;2022-11-20T11:04:43;9.10;99.90
5128;DHT22;2582;48.770;9.190;2022-11-20T11:07:38;9.30;99.90
5128;DHT22;2582;48.770;9.190;2022-11-20T11:10:39;9.50;99.90
5128;DHT22;2582;48.770;9.190;2022-11-20T11:13:07;9.60;99.90
5128;DHT22;2582;48.770;9.190;2022-11-20T11:15:44;9.30;99.90
5128;DHT22;2582;48.770;9.190;2022-11-20T11:18:10;9.20;99.90
5128;DHT22;2582;48.770;9.190;2022-11-20T11:20:36;9.40;99.90
5128;DHT22;2582;48.770;9.190;2022-11-20T11:23:03;9.30;99.90
5128;DHT22;2582;48.770;9.190;2022-11-20T11:25:34;9.40;99.90
5128;DHT22;2582;48.770;9.190;2022-11-20T11:30:43;9.90;99.90
5128;DHT22;2582;48.770;9.190;2022-11-20T11:33:20;10.30;99.90
5128;DHT22;2582;48.770;9.190;2022-11-20T11:38:44;13.10;99.90
5128;DHT22;2582;48.770;9.190;2022-11-20T11:41:15;14.30;99.90
5128;DHT22;2582;48.770;9.190;2022-11-20T11:43:53;15.60;99.90
5128;DHT22;2582;48.770;9.190;2022-11-20T11:46:39;16.50;99.90
5128;DHT22;2582;48.770;9.190;2022-11-20T11:51:37;18.60;99.90
5128;DHT22;2582;48.770;9.190;2022-11-20T11:54:14;18.70;99.90
5128;DHT22;2582;48.770;9.190;2022-11-20T11:56:41;18.20;98.70
5128;DHT22;2582;48.770;9.190;2022-11-20T11:59:12;17.50;99.30
5128;DHT22;2582;48.770;9.190;2022-11-20T12:01:54;17.00;99.90
5128;DHT22;2582;48.770;9.190;2022-11-20T12:04:41;15.60;99.90
5128;DHT22;2582;48.770;9.190;2022-11-20T12:07:27;14.90;99.90
5128;DHT22;2582;48.770;9.190;2022-11-20T12:09:57;13.30;99.90
5128;DHT22;2582;48.770;9.190;2022-11-20T12:12:29;12.60;99.90
5128;DHT22;2582;48.770;9.190;2022-11-20T12:14:57;11.90;99.90
5128;DHT22;2582;48.770;9.190;2022-11-20T12:17:23;12.40;99.90
5128;DHT22;2582;48.770;9.190;2022-11-20T12:19:49;13.30;99.90
5128;DHT22;2582;48.770;9.190;2022-11-20T12:22:43;14.40;99.90
5128;DHT22;2582;48.770;9.190;2022-11-20T12:25:27;16.10;99.90
5128;DHT22;2582;48.770;9.190;2022-11-20T12:30:48;17.90;97.90
5128;DHT22;2582;48.770;9.190;2022-11-20T12:41:51;12.80;99.90
5128;DHT22;2582;48.770;9.190;2022-11-20T13:01:17;11.20;99.90
5128;DHT22;2582;48.770;9.190;2022-11-20T13:06:56;10.80;99.90
5128;DHT22;2582;48.770;9.190;2022-11-20T13:09:23;10.90;99.90
5128;DHT22;2582;48.770;9.190;2022-11-20T13:14:34;11.10;99.90
5128;DHT22;2582;48.770;9.190;2022-11-20T13:17:20;11.10;99.90
5128;DHT22;2582;48.770;9.190;2022-11-20T13:19:52;11.10;99.90
5128;DHT22;2582;48.770;9.190;2022-11-20T13:22:50;11.00;99.90
5128;DHT22;2582;48.770;9.190;2022-11-20T13:25:32;10.90;99.90
5128;DHT22;2582;48.770;9.190;2022-11-20T13:28:00;11.00;99.90
5128;DHT22;2582;48.770;9.190;2022-11-20T13:30:27;10.90;99.90
5128;DHT22;2582;48.770;9.190;2022-11-20T13:33:03;11.00;99.90
5128;DHT22;2582;48.770;9.190;2022-11-20T13:35:37;10.90;99.90
5128;DHT22;2582;48.770;9.190;2022-11-20T13:38:11;10.90;99.90
5128;DHT22;2582;48.770;9.190;2022-11-20T13:40:55;10.70;99.90
5128;DHT22;2582;48.770;9.190;2022-11-20T13:43:41;10.50;99.90
5128;DHT22;2582;48.770;9.190;2022-11-20T13:46:09;10.20;99.90
5128;DHT22;2582;48.770;9.190;2022-11-20T13:48:45;10.20;99.90
5128;DHT22;2582;48.770;9.190;2022-11-20T14:01:59;10.20;99.90
5128;DHT22;2582;48.770;9.190;2022-11-20T14:04:30;10.40;99.90
5128;DHT22;2582;48.770;9.190;2022-11-20T14:06:58;10.10;99.90
5128;DHT22;2582;48.770;9.190;2022-11-20T14:09:27;10.10;99.90
5128;DHT22;2582;48.770;9.190;2022-11-20T14:11:53;10.00;99.90
5128;DHT22;2582;48.770;9.190;2022-11-20T14:14:22;10.10;99.90
5128;DHT22;2582;48.770;9.190;2022-11-20T14:16:49;10.10;99.90
5128;DHT22;2582;48.770;9.190;2022-11-20T14:21:53;10.00;99.90
5128;DHT22;2582;48.770;9.190;2022-11-20T14:24:20;10.10;99.90
5128;DHT22;2582;48.770;9.190;2022-11-20T14:26:47;10.20;99.90
5128;DHT22;2582;48.770;9.190;2022-11-20T14:29:21;10.30;99.90
5128;DHT22;2582;48.770;9.190;2022-11-20T14:31:50;10.40;99.90
5128;DHT22;2582;48.770;9.190;2022-11-20T14:34:21;10.30;99.90
5128;DHT22;2582;48.770;9.190;2022-11-20T14:36:47;10.40;99.90
5128;DHT22;2582;48.770;9.190;2022-11-20T14:39:28;10.40;99.90
5128;DHT22;2582;48.770;9.190;2022-11-20T14:41:54;10.60;99.90
5128;DHT22;2582;48.770;9.190;2022-11-20T14:44:40;10.60;99.90
5128;DHT22;2582;48.770;9.190;2022-11-20T14:47:08;10.80;99.90
5128;DHT22;2582;48.770;9.190;2022-11-20T14:49:37;10.30;99.90
5128;DHT22;2582;48.770;9.190;2022-11-20T14:52:23;10.40;99.90
5128;DHT22;2582;48.770;9.190;2022-11-20T14:54:51;10.40;99.90
5128;DHT22;2582;48.770;9.190;2022-11-20T14:57:33;10.40;99.90
5128;DHT22;2582;48.770;9.190;2022-11-20T15:02:38;10.20;99.90
5128;DHT22;2582;48.770;9.190;2022-11-20T15:05:04;10.30;99.90
5128;DHT22;2582;48.770;9.190;2022-11-20T15:07:33;10.00;99.90
5128;DHT22;2582;48.770;9.190;2022-11-20T15:10:31;9.90;99.90
5128;DHT22;2582;48.770;9.190;2022-11-20T15:13:02;9.80;99.90
5128;DHT22;2582;48.770;9.190;2022-11-20T15:18:15;10.20;99.90
5128;DHT22;2582;48.770;9.190;2022-11-20T15:20:42;10.20;99.90
5128;DHT22;2582;48.770;9.190;2022-11-20T15:23:15;10.10;99.90
5128;DHT22;2582;48.770;9.190;2022-11-20T15:25:43;10.00;99.90
5128;DHT22;2582;48.770;9.190;2022-11-20T15:28:21;9.70;99.90
5128;DHT22;2582;48.770;9.190;2022-11-20T15:30:49;9.70;99.90
5128;DHT22;2582;48.770;9.190;2022-11-20T15:33:16;9.70;99.90
5128;DHT22;2582;48.770;9.190;2022-11-20T15:35:42;9.60;99.90
5128;DHT22;2582;48.770;9.190;2022-11-20T15:38:08;9.60;99.90
5128;DHT22;2582;48.770;9.190;2022-11-20T15:40:33;9.60;99.90
5128;DHT22;2582;48.770;9.190;2022-11-20T15:42:59;9.30;99.90
5128;DHT22;2582;48.770;9.190;2022-11-20T15:45:40;9.40;99.90
5128;DHT22;2582;48.770;9.190;2022-11-20T15:48:31;9.40;99.90
5128;DHT22;2582;48.770;9.190;2022-11-20T15:53:40;9.30;99.90
5128;DHT22;2582;48.770;9.190;2022-11-20T15:56:11;9.20;99.90
5128;DHT22;2582;48.770;9.190;2022-11-20T15:58:37;9.20;99.90
5128;DHT22;2582;48.770;9.190;2022-11-20T16:01:02;9.10;99.90
5128;DHT22;2582;48.770;9.190;2022-11-20T16:03:28;9.20;99.90
5128;DHT22;2582;48.770;9.190;2022-11-20T16:05:53;9.20;99.90
5128;DHT22;2582;48.770;9.190;2022-11-20T16:08:19;9.20;99.90
5128;DHT22;2582;48.770;9.190;2022-11-20T16:10:44;9.30;99.90
5128;DHT22;2582;48.770;9.190;2022-11-20T16:13:15;9.20;99.90
5128;DHT22;2582;48.770;9.190;2022-11-20T16:16:02;9.20;99.90
5128;DHT22;2582;48.770;9.190;2022-11-20T16:18:30;9.10;99.90
5128;DHT22;2582;48.770;9.190;2022-11-20T16:20:56;9.10;99.90
5128;DHT22;2582;48.770;9.190;2022-11-20T16:23:23;9.10;99.90
5128;DHT22;2582;48.770;9.190;2022-11-20T16:25:49;9.20;99.90
5128;DHT22;2582;48.770;9.190;2022-11-20T16:28:16;9.20;99.90
5128;DHT22;2582;48.770;9.190;2022-11-20T16:31:09;9.20;99.90
5128;DHT22;2582;48.770;9.190;2022-11-20T16:33:34;9.20;99.90
5128;DHT22;2582;48.770;9.190;2022-11-20T16:36:10;9.10;99.90
5128;DHT22;2582;48.770;9.190;2022-11-20T16:38:36;9.10;99.90
5128;DHT22;2582;48.770;9.190;2022-11-20T16:41:02;9.10;99.90
5128;DHT22;2582;48.770;9.190;2022-11-20T16:43:27;9.20;99.90
5128;DHT22;2582;48.770;9.190;2022-11-20T16:45:53;9.30;99.90
5128;DHT22;2582;48.770;9.190;2022-11-20T16:48:18;9.10;99.90
5128;DHT22;2582;48.770;9.190;2022-11-20T16:50:45;9.00;99.90
5128;DHT22;2582;48.770;9.190;2022-11-20T16:53:12;9.10;99.90
5128;DHT22;2582;48.770;9.190;2022-11-20T16:55:38;9.20;99.90
5128;DHT22;2582;48.770;9.190;2022-11-20T16:58:03;9.20;99.90
5128;DHT22;2582;48.770;9.190;2022-11-20T17:00:29;9.20;99.90
5128;DHT22;2582;48.770;9.190;2022-11-20T17:02:54;9.20;99.90
5128;DHT22;2582;48.770;9.190;2022-11-20T17:05:20;9.40;99.90
5128;DHT22;2582;48.770;9.190;2022-11-20T17:07:45;9.30;99.90
5128;DHT22;2582;48.770;9.190;2022-11-20T17:10:11;9.20;99.90
5128;DHT22;2582;48.770;9.190;2022-11-20T17:12:36;9.20;99.90
5128;DHT22;2582;48.770;9.190;2022-11-20T17:15:02;9.30;99.90
5128;DHT22;2582;48.770;9.190;2022-11-20T17:17:28;9.40;99.90
5128;DHT22;2582;48.770;9.190;2022-11-20T17:19:53;9.50;99.90
5128;DHT22;2582;48.770;9.190;2022-11-20T17:22:19;9.40;99.90
5128;DHT22;2582;48.770;9.190;2022-11-20T17:24:44;9.20;99.90
5128;DHT22;2582;48.770;9.190;2022-11-20T17:27:10;9.20;99.90
5128;DHT22;2582;48.770;9.190;2022-11-20T17:29:36;9.20;99.90
5128;DHT22;2582;48.770;9.190;2022-11-20T17:32:02;9.10;99.90
5128;DHT22;2582;48.770;9.190;2022-11-20T17:34:27;9.10;99.90
5128;DHT22;2582;48.770;9.190;2022-11-20T17:36:53;9.10;99.90
5128;DHT22;2582;48.770;9.190;2022-11-20T17:39:19;9.20;99.90
5128;DHT22;2582;48.770;9.190;2022-11-20T17:41:45;9.10;99.90
5128;DHT22;2582;48.770;9.190;2022-11-20T17:44:31;9.10;99.90
5128;DHT22;2582;48.770;9.190;2022-11-20T17:46:57;9.20;99.90
5128;DHT22;2582;48.770;9.190;2022-11-20T17:49:22;9.20;99.90
5128;DHT22;2582;48.770;9.190;2022-11-20T17:51:48;9.20;99.90
5128;DHT22;2582;48.770;9.190;2022-11-20T17:54:13;9.20;99.90
5128;DHT22;2582;48.770;9.190;2022-11-20T17:56:39;9.00;99.90
5128;DHT22;2582;48.770;9.190;2022-11-20T17:59:23;9.00;99.90
5128;DHT22;2582;48.770;9.190;2022-11-20T18:01:49;8.90;99.90
5128;DHT22;2582;48.770;9.190;2022-11-20T18:04:14;8.80;99.90
5128;DHT22;2582;48.770;9.190;2022-11-20T18:06:41;8.90;99.90
5128;DHT22;2582;48.770;9.190;2022-11-20T18:09:07;8.90;99.90
5128;DHT22;2582;48.770;9.190;2022-11-20T18:11:35;9.10;99.90
5128;DHT22;2582;48.770;9.190;2022-11-20T18:14:04;9.20;99.90